Time;durP1;ratioP1;P1;durP2;ratioP2;P2;SDS_P1;SDS_P2;PMS_P1;PMS_P2;Temp;Humidity;BMP_temperature;BMP_pressure;BME280_temperature;BME280_humidity;BME280_pressure;Samples;Min_cycle;Max_cycle;Signal;HPM_P1;HPM_P2
2024/02/12 00:00:58;;;;;;;2.4;2.2;;;;;;;7.76;72.33008;93733.59;;;;
2024/02/12 00:01:59;;;;;;;2.4;2.2;;;;;;;7.76;72.33008;93733.59;;;;
2024/02/12 00:02:59;;;;;;;2.4;2.2;;;;;;;7.85;72.64258;93744.12;;;;
2024/02/12 00:04:00;;;;;;;2.4;2.2;;;;;;;7.85;72.64258;93744.12;;;;
2024/02/12 00:05:05;;;;;;;2.4;2.2;;;;;;;7.85;72.64258;93744.12;;;;
2024/02/12 00:06:07;;;;;;;2.4;2.2;;;;;;;7.85;72.64258;93744.12;;;;
2024/02/12 00:07:08;;;;;;;2.4;2.2;;;;;;;7.85;72.64258;93744.12;;;;
2024/02/12 00:08:10;;;;;;;2.4;2.2;;;;;;;7.85;72.64258;93744.12;;;;
2024/02/12 00:09:12;;;;;;;2.4;2.2;;;;;;;7.85;72.64258;93744.12;;;;
2024/02/12 00:10:12;;;;;;;2.4;2.2;;;;;;;7.85;72.64258;93744.12;;;;
2024/02/12 00:11:14;;;;;;;2.4;2.2;;;;;;;7.85;72.64258;93744.12;;;;
2024/02/12 00:12:14;;;;;;;2.4;2.2;;;;;;;7.85;72.64258;93744.12;;;;
2024/02/12 00:13:17;;;;;;;2.4;2.2;;;;;;;7.85;72.64258;93744.12;;;;
2024/02/12 00:14:19;;;;;;;2.4;2.3;;;;;;;8.02;72.76953;93735.66;;;;
2024/02/12 00:15:22;;;;;;;2.4;2.3;;;;;;;8.02;72.76953;93735.66;;;;
2024/02/12 00:16:23;;;;;;;2.4;2.3;;;;;;;8.02;72.76953;93735.66;;;;
2024/02/12 00:17:23;;;;;;;2.4;2.3;;;;;;;8.02;72.76953;93735.66;;;;
2024/02/12 00:18:25;;;;;;;2.4;2.3;;;;;;;8.02;72.76953;93735.66;;;;
2024/02/12 00:19:25;;;;;;;2.4;2.3;;;;;;;8.02;72.76953;93735.66;;;;
2024/02/12 00:20:28;;;;;;;2.4;2.3;;;;;;;8.02;72.76953;93735.66;;;;
2024/02/12 00:21:29;;;;;;;2.4;2.3;;;;;;;8.02;72.76953;93735.66;;;;
2024/02/12 00:22:29;;;;;;;2.4;2.3;;;;;;;8.02;72.76953;93735.66;;;;
2024/02/12 00:23:30;;;;;;;2.4;2.3;;;;;;;8.02;72.76953;93735.66;;;;
2024/02/12 00:24:32;;;;;;;2.4;2.2;;;;;;;8.04;72.62109;93728.88;;;;
2024/02/12 00:25:33;;;;;;;2.4;2.2;;;;;;;8.04;72.62109;93728.88;;;;
2024/02/12 00:26:33;;;;;;;2.4;2.2;;;;;;;8.04;72.62109;93728.88;;;;
2024/02/12 00:27:34;;;;;;;2.4;2.2;;;;;;;8.04;72.62109;93728.88;;;;
2024/02/12 00:28:35;;;;;;;2.4;2.2;;;;;;;8.04;72.62109;93728.88;;;;
2024/02/12 00:29:37;;;;;;;2.4;2.2;;;;;;;8.04;72.62109;93728.88;;;;
2024/02/12 00:30:39;;;;;;;2.4;2.2;;;;;;;8.04;72.62109;93728.88;;;;
2024/02/12 00:31:39;;;;;;;2.4;2.2;;;;;;;8.04;72.62109;93728.88;;;;
2024/02/12 00:32:40;;;;;;;2.4;2.2;;;;;;;8.04;72.62109;93728.88;;;;
2024/02/12 00:33:40;;;;;;;2.4;2.2;;;;;;;8.04;72.62109;93728.88;;;;
2024/02/12 00:34:41;;;;;;;2.4;2.2;;;;;;;8.04;72.62109;93728.88;;;;
2024/02/12 00:35:41;;;;;;;2.4;2.2;;;;;;;8.03;72.64258;93730.7;;;;
2024/02/12 00:36:45;;;;;;;2.4;2.2;;;;;;;8.03;72.64258;93730.7;;;;
2024/02/12 00:37:45;;;;;;;2.4;2.2;;;;;;;8.03;72.64258;93730.7;;;;
2024/02/12 00:38:46;;;;;;;2.4;2.2;;;;;;;8.03;72.64258;93730.7;;;;
2024/02/12 00:39:47;;;;;;;2.4;2.2;;;;;;;8.03;72.64258;93730.7;;;;
2024/02/12 00:40:47;;;;;;;2.4;2.2;;;;;;;8.03;72.64258;93730.7;;;;
2024/02/12 00:41:48;;;;;;;2.4;2.2;;;;;;;8.03;72.64258;93730.7;;;;
2024/02/12 00:42:50;;;;;;;2.4;2.2;;;;;;;8.03;72.64258;93730.7;;;;
2024/02/12 00:43:51;;;;;;;2.4;2.2;;;;;;;8.03;72.64258;93730.7;;;;
2024/02/12 00:44:51;;;;;;;2.4;2.2;;;;;;;8.03;72.64258;93730.7;;;;
2024/02/12 00:45:52;;;;;;;2.3;2.1;;;;;;;7.85;73.0498;93734.01;;;;
2024/02/12 00:46:54;;;;;;;2.3;2.1;;;;;;;7.85;73.0498;93734.01;;;;
2024/02/12 00:47:56;;;;;;;2.3;2.1;;;;;;;7.85;73.0498;93734.01;;;;
2024/02/12 00:48:57;;;;;;;2.3;2.1;;;;;;;7.85;73.0498;93734.01;;;;
2024/02/12 00:49:58;;;;;;;2.3;2.1;;;;;;;7.85;73.0498;93734.01;;;;
2024/02/12 00:50:58;;;;;;;2.3;2.1;;;;;;;7.85;73.0498;93734.01;;;;
2024/02/12 00:52:02;;;;;;;2.3;2.1;;;;;;;7.85;73.0498;93734.01;;;;
2024/02/12 00:53:03;;;;;;;2.3;2.1;;;;;;;7.85;73.0498;93734.01;;;;
2024/02/12 00:54:06;;;;;;;2.3;2.1;;;;;;;7.85;73.0498;93734.01;;;;
2024/02/12 00:55:07;;;;;;;2.3;2.1;;;;;;;7.85;73.0498;93734.01;;;;
2024/02/12 00:56:09;;;;;;;2.3;2.1;;;;;;;7.85;73.0498;93734.01;;;;
2024/02/12 00:57:09;;;;;;;2.7;2.5;;;;;;;7.87;73.20313;93724.06;;;;
2024/02/12 00:58:11;;;;;;;2.7;2.5;;;;;;;7.87;73.20313;93724.06;;;;
2024/02/12 00:59:12;;;;;;;2.7;2.5;;;;;;;7.87;73.20313;93724.06;;;;
2024/02/12 01:00:14;;;;;;;2.7;2.5;;;;;;;7.87;73.20313;93724.06;;;;
2024/02/12 01:01:15;;;;;;;2.7;2.5;;;;;;;7.87;73.20313;93724.06;;;;
2024/02/12 01:02:17;;;;;;;2.7;2.5;;;;;;;7.87;73.20313;93724.06;;;;
2024/02/12 01:03:18;;;;;;;2.7;2.5;;;;;;;7.87;73.20313;93724.06;;;;
2024/02/12 01:04:19;;;;;;;2.7;2.5;;;;;;;7.87;73.20313;93724.06;;;;
2024/02/12 01:05:19;;;;;;;2.7;2.5;;;;;;;7.87;73.20313;93724.06;;;;
2024/02/12 01:06:20;;;;;;;2.7;2.5;;;;;;;7.87;73.20313;93724.06;;;;
2024/02/12 01:07:23;;;;;;;4.25;2.1;;;;;;;7.9;73.23047;93743.72;;;;
2024/02/12 01:08:24;;;;;;;4.25;2.1;;;;;;;7.9;73.23047;93743.72;;;;
2024/02/12 01:09:26;;;;;;;4.25;2.1;;;;;;;7.9;73.23047;93743.72;;;;
2024/02/12 01:10:26;;;;;;;4.25;2.1;;;;;;;7.9;73.23047;93743.72;;;;
2024/02/12 01:11:28;;;;;;;4.25;2.1;;;;;;;7.9;73.23047;93743.72;;;;
2024/02/12 01:12:30;;;;;;;4.25;2.1;;;;;;;7.9;73.23047;93743.72;;;;
2024/02/12 01:13:31;;;;;;;4.25;2.1;;;;;;;7.9;73.23047;93743.72;;;;
2024/02/12 01:14:31;;;;;;;4.25;2.1;;;;;;;7.9;73.23047;93743.72;;;;
2024/02/12 01:15:32;;;;;;;4.25;2.1;;;;;;;7.9;73.23047;93743.72;;;;
2024/02/12 01:16:32;;;;;;;4.25;2.1;;;;;;;7.9;73.23047;93743.72;;;;
2024/02/12 01:17:33;;;;;;;4.25;2.1;;;;;;;7.9;73.23047;93743.72;;;;
2024/02/12 01:18:33;;;;;;;2.6;2.4;;;;;;;8.05;73.32031;93740.48;;;;
2024/02/12 01:19:36;;;;;;;2.6;2.4;;;;;;;8.05;73.32031;93740.48;;;;
2024/02/12 01:20:36;;;;;;;2.6;2.4;;;;;;;8.05;73.32031;93740.48;;;;
2024/02/12 01:21:37;;;;;;;2.6;2.4;;;;;;;8.05;73.32031;93740.48;;;;
2024/02/12 01:22:38;;;;;;;2.6;2.4;;;;;;;8.05;73.32031;93740.48;;;;
2024/02/12 01:23:39;;;;;;;2.6;2.4;;;;;;;8.05;73.32031;93740.48;;;;
2024/02/12 01:24:39;;;;;;;2.6;2.4;;;;;;;8.05;73.32031;93740.48;;;;
2024/02/12 01:25:42;;;;;;;2.6;2.4;;;;;;;8.05;73.32031;93740.48;;;;
2024/02/12 01:26:44;;;;;;;2.6;2.4;;;;;;;8.05;73.32031;93740.48;;;;
2024/02/12 01:27:44;;;;;;;2.6;2.4;;;;;;;8.05;73.32031;93740.48;;;;
2024/02/12 01:28:45;;;;;;;2.6;2.4;;;;;;;8.05;73.32031;93740.48;;;;
2024/02/12 01:29:47;;;;;;;2.6;2.4;;;;;;;8.05;73.32031;93740.48;;;;
2024/02/12 01:30:48;;;;;;;2.6;2.4;;;;;;;8.05;73.32031;93740.48;;;;
2024/02/12 01:31:48;;;;;;;2.6;2.4;;;;;;;8.05;73.32031;93740.48;;;;
2024/02/12 01:32:50;;;;;;;2.6;2.4;;;;;;;8.05;73.32031;93740.48;;;;
2024/02/12 01:33:52;;;;;;;2.6;2.4;;;;;;;8.05;73.32031;93740.48;;;;
2024/02/12 01:34:53;;;;;;;2.6;2.4;;;;;;;8.05;73.32031;93740.48;;;;
2024/02/12 01:35:53;;;;;;;2.6;2.4;;;;;;;8.05;73.32031;93740.48;;;;
2024/02/12 01:36:54;;;;;;;2.6;2.4;;;;;;;8.05;73.32031;93740.48;;;;
2024/02/12 01:37:55;;;;;;;2.6;2.4;;;;;;;8.05;73.32031;93740.48;;;;
2024/02/12 01:38:56;;;;;;;2.6;2.4;;;;;;;8.05;73.32031;93740.48;;;;
2024/02/12 01:39:57;;;;;;;2.9;2.4;;;;;;;8.2;73.29004;93743.92;;;;
2024/02/12 01:40:58;;;;;;;2.9;2.4;;;;;;;8.2;73.29004;93743.92;;;;
2024/02/12 01:41:58;;;;;;;2.9;2.4;;;;;;;8.2;73.29004;93743.92;;;;
2024/02/12 01:43:10;;;;;;;2.9;2.4;;;;;;;8.2;73.29004;93743.92;;;;
2024/02/12 01:44:26;;;;;;;2.9;2.4;;;;;;;8.2;73.29004;93743.92;;;;
2024/02/12 01:45:26;;;;;;;2.9;2.4;;;;;;;8.2;73.29004;93743.92;;;;
2024/02/12 01:46:27;;;;;;;2.9;2.4;;;;;;;8.2;73.29004;93743.92;;;;
2024/02/12 01:47:27;;;;;;;2.9;2.4;;;;;;;8.2;73.29004;93743.92;;;;
2024/02/12 01:48:30;;;;;;;2.9;2.4;;;;;;;8.2;73.29004;93743.92;;;;
2024/02/12 01:49:30;;;;;;;2.9;2.4;;;;;;;8.2;73.29004;93743.92;;;;
2024/02/12 01:50:31;;;;;;;2.2;2;;;;;;;8.27;73.3457;93748.53;;;;
2024/02/12 01:51:32;;;;;;;2.2;2;;;;;;;8.27;73.3457;93748.53;;;;
2024/02/12 01:52:32;;;;;;;2.2;2;;;;;;;8.27;73.3457;93748.53;;;;
2024/02/12 01:53:33;;;;;;;2.2;2;;;;;;;8.27;73.3457;93748.53;;;;
2024/02/12 01:54:35;;;;;;;2.2;2;;;;;;;8.27;73.3457;93748.53;;;;
2024/02/12 01:55:35;;;;;;;2.2;2;;;;;;;8.27;73.3457;93748.53;;;;
2024/02/12 01:56:36;;;;;;;2.2;2;;;;;;;8.27;73.3457;93748.53;;;;
2024/02/12 01:57:36;;;;;;;2.2;2;;;;;;;8.27;73.3457;93748.53;;;;
2024/02/12 01:58:38;;;;;;;2.2;2;;;;;;;8.27;73.3457;93748.53;;;;
2024/02/12 01:59:42;;;;;;;2.2;2;;;;;;;8.27;73.3457;93748.53;;;;
2024/02/12 02:00:45;;;;;;;2.5;2.2;;;;;;;8.29;73.20996;93747.8;;;;
2024/02/12 02:01:47;;;;;;;2.5;2.2;;;;;;;8.29;73.20996;93747.8;;;;
2024/02/12 02:02:48;;;;;;;2.5;2.2;;;;;;;8.29;73.20996;93747.8;;;;
2024/02/12 02:03:48;;;;;;;2.5;2.2;;;;;;;8.29;73.20996;93747.8;;;;
2024/02/12 02:04:50;;;;;;;2.5;2.2;;;;;;;8.29;73.20996;93747.8;;;;
2024/02/12 02:05:52;;;;;;;2.5;2.2;;;;;;;8.29;73.20996;93747.8;;;;
2024/02/12 02:06:53;;;;;;;2.5;2.2;;;;;;;8.29;73.20996;93747.8;;;;
2024/02/12 02:07:56;;;;;;;2.5;2.2;;;;;;;8.29;73.20996;93747.8;;;;
2024/02/12 02:08:58;;;;;;;2.5;2.2;;;;;;;8.29;73.20996;93747.8;;;;
2024/02/12 02:09:58;;;;;;;2.5;2.2;;;;;;;8.29;73.20996;93747.8;;;;
2024/02/12 02:10:59;;;;;;;2.5;2.2;;;;;;;8.29;73.20996;93747.8;;;;
2024/02/12 02:12:01;;;;;;;2.849999;2.4;;;;;;;8.33;73.27148;93752.34;;;;
2024/02/12 02:13:03;;;;;;;2.849999;2.4;;;;;;;8.33;73.27148;93752.34;;;;
2024/02/12 02:14:04;;;;;;;2.849999;2.4;;;;;;;8.33;73.27148;93752.34;;;;
2024/02/12 02:15:05;;;;;;;2.849999;2.4;;;;;;;8.33;73.27148;93752.34;;;;
2024/02/12 02:16:07;;;;;;;2.849999;2.4;;;;;;;8.33;73.27148;93752.34;;;;
2024/02/12 02:17:07;;;;;;;2.849999;2.4;;;;;;;8.33;73.27148;93752.34;;;;
2024/02/12 02:18:08;;;;;;;2.849999;2.4;;;;;;;8.33;73.27148;93752.34;;;;
2024/02/12 02:19:09;;;;;;;2.849999;2.4;;;;;;;8.33;73.27148;93752.34;;;;
2024/02/12 02:20:12;;;;;;;2.849999;2.4;;;;;;;8.33;73.27148;93752.34;;;;
2024/02/12 02:21:12;;;;;;;2.849999;2.4;;;;;;;8.33;73.27148;93752.34;;;;
2024/02/12 02:22:13;;;;;;;2.45;2.3;;;;;;;8.55;72.88965;93748.94;;;;
2024/02/12 02:23:15;;;;;;;2.45;2.3;;;;;;;8.55;72.88965;93748.94;;;;
2024/02/12 02:24:18;;;;;;;2.45;2.3;;;;;;;8.55;72.88965;93748.94;;;;
2024/02/12 02:25:20;;;;;;;2.45;2.3;;;;;;;8.55;72.88965;93748.94;;;;
2024/02/12 02:26:20;;;;;;;2.45;2.3;;;;;;;8.55;72.88965;93748.94;;;;
2024/02/12 02:27:20;;;;;;;2.45;2.3;;;;;;;8.55;72.88965;93748.94;;;;
2024/02/12 02:28:21;;;;;;;2.45;2.3;;;;;;;8.55;72.88965;93748.94;;;;
2024/02/12 02:29:23;;;;;;;2.45;2.3;;;;;;;8.55;72.88965;93748.94;;;;
2024/02/12 02:30:23;;;;;;;2.45;2.3;;;;;;;8.55;72.88965;93748.94;;;;
2024/02/12 02:31:24;;;;;;;2.45;2.3;;;;;;;8.55;72.88965;93748.94;;;;
2024/02/12 02:32:26;;;;;;;2.45;2.3;;;;;;;8.55;72.88965;93748.94;;;;
2024/02/12 02:33:26;;;;;;;2.4;2.3;;;;;;;8.74;73.13574;93746.5;;;;
2024/02/12 02:34:27;;;;;;;2.4;2.3;;;;;;;8.74;73.13574;93746.5;;;;
2024/02/12 02:35:27;;;;;;;2.4;2.3;;;;;;;8.74;73.13574;93746.5;;;;
2024/02/12 02:36:28;;;;;;;2.4;2.3;;;;;;;8.74;73.13574;93746.5;;;;
2024/02/12 02:37:29;;;;;;;2.4;2.3;;;;;;;8.74;73.13574;93746.5;;;;
2024/02/12 02:38:29;;;;;;;2.4;2.3;;;;;;;8.74;73.13574;93746.5;;;;
2024/02/12 02:39:30;;;;;;;2.4;2.3;;;;;;;8.74;73.13574;93746.5;;;;
2024/02/12 02:40:30;;;;;;;2.4;2.3;;;;;;;8.74;73.13574;93746.5;;;;
2024/02/12 02:41:30;;;;;;;2.4;2.3;;;;;;;8.74;73.13574;93746.5;;;;
2024/02/12 02:42:31;;;;;;;2.4;2.3;;;;;;;8.74;73.13574;93746.5;;;;
2024/02/12 02:43:31;;;;;;;2.85;2.65;;;;;;;8.97;72.97168;93740.95;;;;
2024/02/12 02:44:33;;;;;;;2.85;2.65;;;;;;;8.97;72.97168;93740.95;;;;
2024/02/12 02:45:34;;;;;;;2.85;2.65;;;;;;;8.97;72.97168;93740.95;;;;
2024/02/12 02:46:36;;;;;;;2.85;2.65;;;;;;;8.97;72.97168;93740.95;;;;
2024/02/12 02:47:40;;;;;;;2.85;2.65;;;;;;;8.97;72.97168;93740.95;;;;
2024/02/12 02:48:40;;;;;;;2.85;2.65;;;;;;;8.97;72.97168;93740.95;;;;
2024/02/12 02:49:41;;;;;;;2.85;2.65;;;;;;;8.97;72.97168;93740.95;;;;
2024/02/12 02:50:41;;;;;;;2.85;2.65;;;;;;;8.97;72.97168;93740.95;;;;
2024/02/12 02:51:41;;;;;;;2.85;2.65;;;;;;;8.97;72.97168;93740.95;;;;
2024/02/12 02:52:42;;;;;;;2.85;2.65;;;;;;;8.97;72.97168;93740.95;;;;
2024/02/12 02:53:44;;;;;;;2.85;2.65;;;;;;;8.97;72.97168;93740.95;;;;
2024/02/12 02:54:45;;;;;;;2.3;2.1;;;;;;;9.12;72.85547;93741.71;;;;
2024/02/12 02:55:46;;;;;;;2.3;2.1;;;;;;;9.12;72.85547;93741.71;;;;
2024/02/12 02:56:46;;;;;;;2.3;2.1;;;;;;;9.12;72.85547;93741.71;;;;
2024/02/12 02:57:47;;;;;;;2.3;2.1;;;;;;;9.12;72.85547;93741.71;;;;
2024/02/12 02:58:49;;;;;;;2.3;2.1;;;;;;;9.12;72.85547;93741.71;;;;
2024/02/12 02:59:51;;;;;;;2.3;2.1;;;;;;;9.12;72.85547;93741.71;;;;
2024/02/12 03:00:53;;;;;;;2.3;2.1;;;;;;;9.12;72.85547;93741.71;;;;
2024/02/12 03:01:54;;;;;;;2.3;2.1;;;;;;;9.12;72.85547;93741.71;;;;
2024/02/12 03:02:55;;;;;;;2.3;2.1;;;;;;;9.12;72.85547;93741.71;;;;
2024/02/12 03:03:55;;;;;;;2.3;2.1;;;;;;;9.12;72.85547;93741.71;;;;
2024/02/12 03:04:56;;;;;;;2.6;2.4;;;;;;;9.25;72.66309;93740.97;;;;
2024/02/12 03:05:57;;;;;;;2.6;2.4;;;;;;;9.25;72.66309;93740.97;;;;
2024/02/12 03:06:58;;;;;;;2.6;2.4;;;;;;;9.25;72.66309;93740.97;;;;
2024/02/12 03:08:02;;;;;;;2.6;2.4;;;;;;;9.25;72.66309;93740.97;;;;
2024/02/12 03:09:03;;;;;;;2.6;2.4;;;;;;;9.25;72.66309;93740.97;;;;
2024/02/12 03:10:04;;;;;;;2.6;2.4;;;;;;;9.25;72.66309;93740.97;;;;
2024/02/12 03:11:05;;;;;;;2.6;2.4;;;;;;;9.25;72.66309;93740.97;;;;
2024/02/12 03:12:06;;;;;;;2.6;2.4;;;;;;;9.25;72.66309;93740.97;;;;
2024/02/12 03:13:06;;;;;;;2.6;2.4;;;;;;;9.25;72.66309;93740.97;;;;
2024/02/12 03:14:08;;;;;;;2.6;2.4;;;;;;;9.25;72.66309;93740.97;;;;
2024/02/12 03:15:11;;;;;;;2.6;2.4;;;;;;;9.25;72.66309;93740.97;;;;
2024/02/12 03:16:12;;;;;;;2.55;2.45;;;;;;;9.28;72.60449;93752.75;;;;
2024/02/12 03:17:13;;;;;;;2.55;2.45;;;;;;;9.28;72.60449;93752.75;;;;
2024/02/12 03:18:20;;;;;;;2.55;2.45;;;;;;;9.28;72.60449;93752.75;;;;
2024/02/12 03:19:20;;;;;;;2.55;2.45;;;;;;;9.28;72.60449;93752.75;;;;
2024/02/12 03:20:21;;;;;;;2.55;2.45;;;;;;;9.28;72.60449;93752.75;;;;
2024/02/12 03:21:22;;;;;;;2.55;2.45;;;;;;;9.28;72.60449;93752.75;;;;
2024/02/12 03:22:23;;;;;;;2.55;2.45;;;;;;;9.28;72.60449;93752.75;;;;
2024/02/12 03:23:23;;;;;;;2.55;2.45;;;;;;;9.28;72.60449;93752.75;;;;
2024/02/12 03:24:26;;;;;;;2.55;2.45;;;;;;;9.28;72.60449;93752.75;;;;
2024/02/12 03:25:26;;;;;;;2.55;2.45;;;;;;;9.28;72.60449;93752.75;;;;
2024/02/12 03:26:27;;;;;;;2.6;2.4;;;;;;;9.3;72.43457;93747.64;;;;
2024/02/12 03:27:27;;;;;;;2.6;2.4;;;;;;;9.3;72.43457;93747.64;;;;
2024/02/12 03:28:28;;;;;;;2.6;2.4;;;;;;;9.3;72.43457;93747.64;;;;
2024/02/12 03:29:31;;;;;;;2.6;2.4;;;;;;;9.3;72.43457;93747.64;;;;
2024/02/12 03:30:31;;;;;;;2.6;2.4;;;;;;;9.3;72.43457;93747.64;;;;
2024/02/12 03:31:32;;;;;;;2.6;2.4;;;;;;;9.3;72.43457;93747.64;;;;
2024/02/12 03:32:32;;;;;;;2.6;2.4;;;;;;;9.3;72.43457;93747.64;;;;
2024/02/12 03:33:33;;;;;;;2.6;2.4;;;;;;;9.3;72.43457;93747.64;;;;
2024/02/12 03:34:35;;;;;;;2.6;2.4;;;;;;;9.3;72.43457;93747.64;;;;
2024/02/12 03:35:36;;;;;;;2.6;2.4;;;;;;;9.3;72.43457;93747.64;;;;
2024/02/12 03:36:36;;;;;;;2.6;2.4;;;;;;;9.3;72.43457;93747.64;;;;
2024/02/12 03:37:40;;;;;;;2.15;2;;;;;;;9.25;72.1582;93756.8;;;;
2024/02/12 03:38:41;;;;;;;2.15;2;;;;;;;9.25;72.1582;93756.8;;;;
2024/02/12 03:39:41;;;;;;;2.15;2;;;;;;;9.25;72.1582;93756.8;;;;
2024/02/12 03:40:42;;;;;;;2.15;2;;;;;;;9.25;72.1582;93756.8;;;;
2024/02/12 03:41:43;;;;;;;2.15;2;;;;;;;9.25;72.1582;93756.8;;;;
2024/02/12 03:42:44;;;;;;;2.15;2;;;;;;;9.25;72.1582;93756.8;;;;
2024/02/12 03:43:44;;;;;;;2.15;2;;;;;;;9.25;72.1582;93756.8;;;;
2024/02/12 03:44:45;;;;;;;2.15;2;;;;;;;9.25;72.1582;93756.8;;;;
2024/02/12 03:45:46;;;;;;;2.15;2;;;;;;;9.25;72.1582;93756.8;;;;
2024/02/12 03:46:46;;;;;;;2.15;2;;;;;;;9.25;72.1582;93756.8;;;;
2024/02/12 03:47:47;;;;;;;2.2;2.1;;;;;;;9.15;72.15332;93764.03;;;;
2024/02/12 04:03:43;;;;;;;2.4;1.8;;;;;;;9.04;71.86621;93774.52;;;;
2024/02/12 04:04:44;;;;;;;2.4;1.8;;;;;;;9.04;71.86621;93774.52;;;;
2024/02/12 04:05:44;;;;;;;2.4;1.8;;;;;;;9.04;71.86621;93774.52;;;;
2024/02/12 04:06:45;;;;;;;2.4;1.8;;;;;;;9.04;71.86621;93774.52;;;;
2024/02/12 04:07:45;;;;;;;2.4;1.8;;;;;;;9.04;71.86621;93774.52;;;;
2024/02/12 04:08:47;;;;;;;2.4;1.8;;;;;;;9.04;71.86621;93774.52;;;;
2024/02/12 04:09:49;;;;;;;2.2;1.9;;;;;;;9.13;72.06445;93773.21;;;;
2024/02/12 04:10:49;;;;;;;2.2;1.9;;;;;;;9.13;72.06445;93773.21;;;;
2024/02/12 04:11:50;;;;;;;2.2;1.9;;;;;;;9.13;72.06445;93773.21;;;;
2024/02/12 04:12:50;;;;;;;2.2;1.9;;;;;;;9.13;72.06445;93773.21;;;;
2024/02/12 04:13:54;;;;;;;2.2;1.9;;;;;;;9.13;72.06445;93773.21;;;;
2024/02/12 04:14:55;;;;;;;2.2;1.9;;;;;;;9.13;72.06445;93773.21;;;;
2024/02/12 04:15:55;;;;;;;2.2;1.9;;;;;;;9.13;72.06445;93773.21;;;;
2024/02/12 04:16:56;;;;;;;2.2;1.9;;;;;;;9.13;72.06445;93773.21;;;;
2024/02/12 04:17:56;;;;;;;2.2;1.9;;;;;;;9.13;72.06445;93773.21;;;;
2024/02/12 04:18:57;;;;;;;2.2;1.9;;;;;;;9.13;72.06445;93773.21;;;;
2024/02/12 04:19:59;;;;;;;2.4;2.2;;;;;;;9.08;71.74512;93792.38;;;;
2024/02/12 04:20:59;;;;;;;2.4;2.2;;;;;;;9.08;71.74512;93792.38;;;;
2024/02/12 04:22:01;;;;;;;2.4;2.2;;;;;;;9.08;71.74512;93792.38;;;;
2024/02/12 04:23:02;;;;;;;2.4;2.2;;;;;;;9.08;71.74512;93792.38;;;;
2024/02/12 04:24:04;;;;;;;2.4;2.2;;;;;;;9.08;71.74512;93792.38;;;;
2024/02/12 04:25:05;;;;;;;2.4;2.2;;;;;;;9.08;71.74512;93792.38;;;;
2024/02/12 04:26:10;;;;;;;2.4;2.2;;;;;;;9.08;71.74512;93792.38;;;;
2024/02/12 04:27:11;;;;;;;2.4;2.2;;;;;;;9.08;71.74512;93792.38;;;;
2024/02/12 04:28:13;;;;;;;2.4;2.2;;;;;;;9.08;71.74512;93792.38;;;;
2024/02/12 04:29:14;;;;;;;2.4;2.2;;;;;;;9.08;71.74512;93792.38;;;;
2024/02/12 04:30:15;;;;;;;1.95;1.85;;;;;;;8.95;71.6377;93806.27;;;;
2024/02/12 04:31:16;;;;;;;1.95;1.85;;;;;;;8.95;71.6377;93806.27;;;;
2024/02/12 04:32:16;;;;;;;1.95;1.85;;;;;;;8.95;71.6377;93806.27;;;;
2024/02/12 04:33:17;;;;;;;1.95;1.85;;;;;;;8.95;71.6377;93806.27;;;;
2024/02/12 04:34:17;;;;;;;1.95;1.85;;;;;;;8.95;71.6377;93806.27;;;;
2024/02/12 04:35:18;;;;;;;1.95;1.85;;;;;;;8.95;71.6377;93806.27;;;;
2024/02/12 04:36:18;;;;;;;1.95;1.85;;;;;;;8.95;71.6377;93806.27;;;;
2024/02/12 04:37:18;;;;;;;1.95;1.85;;;;;;;8.95;71.6377;93806.27;;;;
2024/02/12 04:38:21;;;;;;;1.95;1.85;;;;;;;8.95;71.6377;93806.27;;;;
2024/02/12 04:39:21;;;;;;;1.95;1.85;;;;;;;8.95;71.6377;93806.27;;;;
2024/02/12 04:40:22;;;;;;;1.95;1.85;;;;;;;8.95;71.6377;93806.27;;;;
2024/02/12 04:41:24;;;;;;;2;1.9;;;;;;;8.87;71.59375;93813.23;;;;
2024/02/12 04:42:24;;;;;;;2;1.9;;;;;;;8.87;71.59375;93813.23;;;;
2024/02/12 04:43:25;;;;;;;2;1.9;;;;;;;8.87;71.59375;93813.23;;;;
2024/02/12 04:44:25;;;;;;;2;1.9;;;;;;;8.87;71.59375;93813.23;;;;
2024/02/12 04:45:26;;;;;;;2;1.9;;;;;;;8.87;71.59375;93813.23;;;;
2024/02/12 04:46:27;;;;;;;2;1.9;;;;;;;8.87;71.59375;93813.23;;;;
2024/02/12 04:47:27;;;;;;;2;1.9;;;;;;;8.87;71.59375;93813.23;;;;
2024/02/12 04:48:27;;;;;;;2;1.9;;;;;;;8.87;71.59375;93813.23;;;;
2024/02/12 04:49:28;;;;;;;2;1.9;;;;;;;8.87;71.59375;93813.23;;;;
2024/02/12 04:50:29;;;;;;;2;1.9;;;;;;;8.87;71.59375;93813.23;;;;
2024/02/12 04:51:31;;;;;;;2;1.9;;;;;;;8.87;71.59375;93813.23;;;;
2024/02/12 04:52:32;;;;;;;2.1;2;;;;;;;9.03;71.53223;93828.41;;;;
2024/02/12 04:53:32;;;;;;;2.1;2;;;;;;;9.03;71.53223;93828.41;;;;
2024/02/12 04:54:33;;;;;;;2.1;2;;;;;;;9.03;71.53223;93828.41;;;;
2024/02/12 04:55:33;;;;;;;2.1;2;;;;;;;9.03;71.53223;93828.41;;;;
2024/02/12 04:56:34;;;;;;;2.1;2;;;;;;;9.03;71.53223;93828.41;;;;
2024/02/12 04:57:34;;;;;;;2.1;2;;;;;;;9.03;71.53223;93828.41;;;;
2024/02/12 04:58:35;;;;;;;2.1;2;;;;;;;9.03;71.53223;93828.41;;;;
2024/02/12 04:59:38;;;;;;;2.1;2;;;;;;;9.03;71.53223;93828.41;;;;
2024/02/12 05:00:39;;;;;;;2.1;2;;;;;;;9.03;71.53223;93828.41;;;;
2024/02/12 05:01:40;;;;;;;2.1;2;;;;;;;9.03;71.53223;93828.41;;;;
2024/02/12 05:02:40;;;;;;;2.35;2.15;;;;;;;9.08;71.5957;93838.5;;;;
2024/02/12 05:03:41;;;;;;;2.35;2.15;;;;;;;9.08;71.5957;93838.5;;;;
2024/02/12 05:04:41;;;;;;;2.35;2.15;;;;;;;9.08;71.5957;93838.5;;;;
2024/02/12 05:05:42;;;;;;;2.35;2.15;;;;;;;9.08;71.5957;93838.5;;;;
2024/02/12 05:06:42;;;;;;;2.35;2.15;;;;;;;9.08;71.5957;93838.5;;;;
2024/02/12 05:07:43;;;;;;;2.35;2.15;;;;;;;9.08;71.5957;93838.5;;;;
2024/02/12 05:08:43;;;;;;;2.35;2.15;;;;;;;9.08;71.5957;93838.5;;;;
2024/02/12 05:09:44;;;;;;;2.35;2.15;;;;;;;9.08;71.5957;93838.5;;;;
2024/02/12 05:10:45;;;;;;;2.35;2.15;;;;;;;9.08;71.5957;93838.5;;;;
2024/02/12 05:11:45;;;;;;;2.35;2.15;;;;;;;9.08;71.5957;93838.5;;;;
2024/02/12 05:12:47;;;;;;;2.35;2.15;;;;;;;9.08;71.5957;93838.5;;;;
2024/02/12 05:13:47;;;;;;;2.4;2.2;;;;;;;9.1;71.66309;93833.8;;;;
2024/02/12 05:14:48;;;;;;;2.4;2.2;;;;;;;9.1;71.66309;93833.8;;;;
2024/02/12 05:15:50;;;;;;;2.4;2.2;;;;;;;9.1;71.66309;93833.8;;;;
2024/02/12 05:16:50;;;;;;;2.4;2.2;;;;;;;9.1;71.66309;93833.8;;;;
2024/02/12 05:17:54;;;;;;;2.4;2.2;;;;;;;9.1;71.66309;93833.8;;;;
2024/02/12 05:26:18;;;;;;;2.2;2;;;;;;;9.05;71.31055;93850.84;;;;
2024/02/12 05:27:19;;;;;;;2.2;2;;;;;;;9.05;71.31055;93850.84;;;;
2024/02/12 05:28:19;;;;;;;2.2;2;;;;;;;9.05;71.31055;93850.84;;;;
2024/02/12 05:29:20;;;;;;;2.2;2;;;;;;;9.05;71.31055;93850.84;;;;
2024/02/12 05:30:21;;;;;;;2.2;2;;;;;;;9.05;71.31055;93850.84;;;;
2024/02/12 05:31:21;;;;;;;2.2;2;;;;;;;9.05;71.31055;93850.84;;;;
2024/02/12 05:32:23;;;;;;;2.2;2;;;;;;;9.05;71.31055;93850.84;;;;
2024/02/12 05:33:23;;;;;;;2.2;2;;;;;;;9.05;71.31055;93850.84;;;;
2024/02/12 05:34:23;;;;;;;1.95;1.85;;;;;;;9.05;70.93457;93858.34;;;;
2024/02/12 05:35:24;;;;;;;1.95;1.85;;;;;;;9.05;70.93457;93858.34;;;;
2024/02/12 05:36:25;;;;;;;1.95;1.85;;;;;;;9.05;70.93457;93858.34;;;;
2024/02/12 05:37:25;;;;;;;1.95;1.85;;;;;;;9.05;70.93457;93858.34;;;;
2024/02/12 05:38:26;;;;;;;1.95;1.85;;;;;;;9.05;70.93457;93858.34;;;;
2024/02/12 05:39:26;;;;;;;1.95;1.85;;;;;;;9.05;70.93457;93858.34;;;;
2024/02/12 05:40:27;;;;;;;1.95;1.85;;;;;;;9.05;70.93457;93858.34;;;;
2024/02/12 05:41:27;;;;;;;1.95;1.85;;;;;;;9.05;70.93457;93858.34;;;;
2024/02/12 05:42:27;;;;;;;1.95;1.85;;;;;;;9.05;70.93457;93858.34;;;;
2024/02/12 05:43:28;;;;;;;1.95;1.85;;;;;;;9.05;70.93457;93858.34;;;;
2024/02/12 05:44:29;;;;;;;1.95;1.85;;;;;;;9.05;70.93457;93858.34;;;;
2024/02/12 05:45:30;;;;;;;2;1.7;;;;;;;8.95;70.70508;93857.65;;;;
2024/02/12 05:46:31;;;;;;;2;1.7;;;;;;;8.95;70.70508;93857.65;;;;
2024/02/12 05:47:31;;;;;;;2;1.7;;;;;;;8.95;70.70508;93857.65;;;;
2024/02/12 05:48:32;;;;;;;2;1.7;;;;;;;8.95;70.70508;93857.65;;;;
2024/02/12 05:49:34;;;;;;;2;1.7;;;;;;;8.95;70.70508;93857.65;;;;
2024/02/12 05:50:35;;;;;;;2;1.7;;;;;;;8.95;70.70508;93857.65;;;;
2024/02/12 05:51:35;;;;;;;2;1.7;;;;;;;8.95;70.70508;93857.65;;;;
2024/02/12 05:52:37;;;;;;;2;1.7;;;;;;;8.95;70.70508;93857.65;;;;
2024/02/12 05:53:37;;;;;;;2;1.7;;;;;;;8.95;70.70508;93857.65;;;;
2024/02/12 05:54:38;;;;;;;2;1.7;;;;;;;8.95;70.70508;93857.65;;;;
2024/02/12 05:55:39;;;;;;;2;1.9;;;;;;;8.96;70.86523;93859.38;;;;
2024/02/12 05:56:39;;;;;;;2;1.9;;;;;;;8.96;70.86523;93859.38;;;;
2024/02/12 05:57:40;;;;;;;2;1.9;;;;;;;8.96;70.86523;93859.38;;;;
2024/02/12 05:58:41;;;;;;;2;1.9;;;;;;;8.96;70.86523;93859.38;;;;
2024/02/12 05:59:41;;;;;;;2;1.9;;;;;;;8.96;70.86523;93859.38;;;;
2024/02/12 06:00:42;;;;;;;2;1.9;;;;;;;8.96;70.86523;93859.38;;;;
2024/02/12 06:01:43;;;;;;;2;1.9;;;;;;;8.96;70.86523;93859.38;;;;
2024/02/12 06:02:43;;;;;;;2;1.9;;;;;;;8.96;70.86523;93859.38;;;;
2024/02/12 06:03:45;;;;;;;2;1.9;;;;;;;8.96;70.86523;93859.38;;;;
2024/02/12 06:04:46;;;;;;;2;1.9;;;;;;;8.96;70.86523;93859.38;;;;
2024/02/12 06:05:47;;;;;;;2;1.9;;;;;;;8.96;70.86523;93859.38;;;;
2024/02/12 06:06:49;;;;;;;1.8;1.7;;;;;;;8.96;70.99609;93863.19;;;;
2024/02/12 06:07:49;;;;;;;1.8;1.7;;;;;;;8.96;70.99609;93863.19;;;;
2024/02/12 06:08:50;;;;;;;1.8;1.7;;;;;;;8.96;70.99609;93863.19;;;;
2024/02/12 06:09:50;;;;;;;1.8;1.7;;;;;;;8.96;70.99609;93863.19;;;;
2024/02/12 06:10:51;;;;;;;1.8;1.7;;;;;;;8.96;70.99609;93863.19;;;;
2024/02/12 06:11:51;;;;;;;1.8;1.7;;;;;;;8.96;70.99609;93863.19;;;;
2024/02/12 06:12:52;;;;;;;1.8;1.7;;;;;;;8.96;70.99609;93863.19;;;;
2024/02/12 06:13:52;;;;;;;1.8;1.7;;;;;;;8.96;70.99609;93863.19;;;;
2024/02/12 06:14:54;;;;;;;1.8;1.7;;;;;;;8.96;70.99609;93863.19;;;;
2024/02/12 06:15:54;;;;;;;1.8;1.7;;;;;;;8.96;70.99609;93863.19;;;;
2024/02/12 06:16:54;;;;;;;1.8;1.7;;;;;;;8.96;70.99609;93863.19;;;;
2024/02/12 06:17:55;;;;;;;2.3;2.1;;;;;;;8.95;70.9082;93873.46;;;;
2024/02/12 06:18:56;;;;;;;2.3;2.1;;;;;;;8.95;70.9082;93873.46;;;;
2024/02/12 06:19:57;;;;;;;2.3;2.1;;;;;;;8.95;70.9082;93873.46;;;;
2024/02/12 06:20:57;;;;;;;2.3;2.1;;;;;;;8.95;70.9082;93873.46;;;;
2024/02/12 06:21:58;;;;;;;2.3;2.1;;;;;;;8.95;70.9082;93873.46;;;;
2024/02/12 06:22:58;;;;;;;2.3;2.1;;;;;;;8.95;70.9082;93873.46;;;;
2024/02/12 06:23:58;;;;;;;2.3;2.1;;;;;;;8.95;70.9082;93873.46;;;;
2024/02/12 06:25:04;;;;;;;2.3;2.1;;;;;;;8.95;70.9082;93873.46;;;;